sensor_id;sensor_type;location;lat;lon;timestamp;temperature;humidity
37658;DHT22;23500;53.268;8.308;2023-05-10T00:00:57;19.30;69.20
37658;DHT22;23500;53.268;8.308;2023-05-10T00:03:23;19.30;69.20
37658;DHT22;23500;53.268;8.308;2023-05-10T00:05:48;19.20;69.10
37658;DHT22;23500;53.268;8.308;2023-05-10T00:08:14;19.30;69.20
37658;DHT22;23500;53.268;8.308;2023-05-10T00:10:40;19.30;69.20
37658;DHT22;23500;53.268;8.308;2023-05-10T00:13:06;19.30;69.30
37658;DHT22;23500;53.268;8.308;2023-05-10T00:15:32;19.20;69.20
37658;DHT22;23500;53.268;8.308;2023-05-10T00:17:58;19.20;69.20
37658;DHT22;23500;53.268;8.308;2023-05-10T00:20:23;19.20;69.20
37658;DHT22;23500;53.268;8.308;2023-05-10T00:22:49;19.20;69.30
37658;DHT22;23500;53.268;8.308;2023-05-10T00:25:15;19.20;69.30
37658;DHT22;23500;53.268;8.308;2023-05-10T00:27:40;19.20;69.40
37658;DHT22;23500;53.268;8.308;2023-05-10T00:30:07;19.20;69.50
37658;DHT22;23500;53.268;8.308;2023-05-10T00:32:32;19.20;69.30
37658;DHT22;23500;53.268;8.308;2023-05-10T00:34:58;19.20;69.40
37658;DHT22;23500;53.268;8.308;2023-05-10T00:37:24;19.20;69.40
37658;DHT22;23500;53.268;8.308;2023-05-10T00:39:50;19.20;69.40
37658;DHT22;23500;53.268;8.308;2023-05-10T00:42:15;19.20;69.40
37658;DHT22;23500;53.268;8.308;2023-05-10T00:44:41;19.20;69.60
37658;DHT22;23500;53.268;8.308;2023-05-10T00:47:07;19.20;69.50
37658;DHT22;23500;53.268;8.308;2023-05-10T00:49:34;19.20;69.60
37658;DHT22;23500;53.268;8.308;2023-05-10T00:51:59;19.20;69.60
37658;DHT22;23500;53.268;8.308;2023-05-10T00:54:25;19.20;69.70
37658;DHT22;23500;53.268;8.308;2023-05-10T00:56:51;19.20;69.70
37658;DHT22;23500;53.268;8.308;2023-05-10T00:59:17;19.20;69.80
37658;DHT22;23500;53.268;8.308;2023-05-10T01:01:46;19.10;69.70
37658;DHT22;23500;53.268;8.308;2023-05-10T01:04:13;19.10;69.60
37658;DHT22;23500;53.268;8.308;2023-05-10T01:06:40;19.10;69.60
37658;DHT22;23500;53.268;8.308;2023-05-10T01:09:06;19.10;69.60
37658;DHT22;23500;53.268;8.308;2023-05-10T01:11:34;19.10;69.50
37658;DHT22;23500;53.268;8.308;2023-05-10T01:14:01;19.10;69.50
37658;DHT22;23500;53.268;8.308;2023-05-10T01:16:27;19.10;69.70
37658;DHT22;23500;53.268;8.308;2023-05-10T01:18:53;19.10;69.70
37658;DHT22;23500;53.268;8.308;2023-05-10T01:21:48;19.10;69.70
37658;DHT22;23500;53.268;8.308;2023-05-10T01:24:37;19.10;70.40
37658;DHT22;23500;53.268;8.308;2023-05-10T01:27:23;19.10;69.70
37658;DHT22;23500;53.268;8.308;2023-05-10T01:30:29;19.10;70.00
37658;DHT22;23500;53.268;8.308;2023-05-10T01:35:46;19.10;69.80
37658;DHT22;23500;53.268;8.308;2023-05-10T01:38:33;19.10;69.80
37658;DHT22;23500;53.268;8.308;2023-05-10T01:41:17;19.10;69.80
37658;DHT22;23500;53.268;8.308;2023-05-10T01:47:34;19.10;69.80
37658;DHT22;23500;53.268;8.308;2023-05-10T01:50:03;19.10;69.90
37658;DHT22;23500;53.268;8.308;2023-05-10T01:52:37;19.00;70.30
37658;DHT22;23500;53.268;8.308;2023-05-10T01:55:11;19.00;70.00
37658;DHT22;23500;53.268;8.308;2023-05-10T01:57:40;19.00;70.00
37658;DHT22;23500;53.268;8.308;2023-05-10T02:00:09;19.00;69.90
37658;DHT22;23500;53.268;8.308;2023-05-10T02:02:38;19.00;69.90
37658;DHT22;23500;53.268;8.308;2023-05-10T02:05:08;19.00;69.80
37658;DHT22;23500;53.268;8.308;2023-05-10T02:07:35;19.00;69.70
37658;DHT22;23500;53.268;8.308;2023-05-10T02:10:04;19.00;70.00
37658;DHT22;23500;53.268;8.308;2023-05-10T02:12:32;19.00;70.10
37658;DHT22;23500;53.268;8.308;2023-05-10T02:15:01;19.00;69.90
37658;DHT22;23500;53.268;8.308;2023-05-10T02:17:28;19.10;69.80
37658;DHT22;23500;53.268;8.308;2023-05-10T02:19:56;19.00;69.70
37658;DHT22;23500;53.268;8.308;2023-05-10T02:22:23;19.10;69.90
37658;DHT22;23500;53.268;8.308;2023-05-10T02:24:49;19.00;69.80
37658;DHT22;23500;53.268;8.308;2023-05-10T02:27:17;19.00;69.90
37658;DHT22;23500;53.268;8.308;2023-05-10T02:29:45;19.00;70.10
37658;DHT22;23500;53.268;8.308;2023-05-10T02:32:12;19.00;69.80
37658;DHT22;23500;53.268;8.308;2023-05-10T02:34:39;19.00;69.80
37658;DHT22;23500;53.268;8.308;2023-05-10T02:37:06;19.00;69.40
37658;DHT22;23500;53.268;8.308;2023-05-10T02:39:32;19.00;69.30
37658;DHT22;23500;53.268;8.308;2023-05-10T02:41:58;19.00;69.20
37658;DHT22;23500;53.268;8.308;2023-05-10T02:44:27;19.00;69.20
37658;DHT22;23500;53.268;8.308;2023-05-10T02:46:54;19.00;69.20
37658;DHT22;23500;53.268;8.308;2023-05-10T02:49:21;19.00;69.10
37658;DHT22;23500;53.268;8.308;2023-05-10T02:51:55;19.00;69.20
37658;DHT22;23500;53.268;8.308;2023-05-10T02:54:27;19.00;69.10
37658;DHT22;23500;53.268;8.308;2023-05-10T02:56:58;19.00;68.90
37658;DHT22;23500;53.268;8.308;2023-05-10T02:59:26;19.00;68.90
37658;DHT22;23500;53.268;8.308;2023-05-10T03:01:51;19.00;68.70
37658;DHT22;23500;53.268;8.308;2023-05-10T03:04:17;19.00;68.70
37658;DHT22;23500;53.268;8.308;2023-05-10T03:06:43;19.00;68.70
37658;DHT22;23500;53.268;8.308;2023-05-10T03:09:09;19.00;68.70
37658;DHT22;23500;53.268;8.308;2023-05-10T03:11:53;18.90;68.50
37658;DHT22;23500;53.268;8.308;2023-05-10T03:17:16;18.90;68.90
37658;DHT22;23500;53.268;8.308;2023-05-10T03:19:56;18.90;69.60
37658;DHT22;23500;53.268;8.308;2023-05-10T03:22:26;18.90;69.00
37658;DHT22;23500;53.268;8.308;2023-05-10T03:24:56;18.90;69.10
37658;DHT22;23500;53.268;8.308;2023-05-10T03:27:26;18.90;69.10
37658;DHT22;23500;53.268;8.308;2023-05-10T03:29:54;18.90;69.20
37658;DHT22;23500;53.268;8.308;2023-05-10T03:32:20;18.90;69.20
37658;DHT22;23500;53.268;8.308;2023-05-10T03:34:45;18.80;68.90
37658;DHT22;23500;53.268;8.308;2023-05-10T03:37:11;18.80;69.10
37658;DHT22;23500;53.268;8.308;2023-05-10T03:39:37;18.80;69.10
37658;DHT22;23500;53.268;8.308;2023-05-10T03:42:02;18.80;69.10
37658;DHT22;23500;53.268;8.308;2023-05-10T03:44:28;18.80;69.10
37658;DHT22;23500;53.268;8.308;2023-05-10T03:46:54;18.80;69.20
37658;DHT22;23500;53.268;8.308;2023-05-10T03:49:20;18.80;69.20
37658;DHT22;23500;53.268;8.308;2023-05-10T03:51:46;18.80;69.30
37658;DHT22;23500;53.268;8.308;2023-05-10T03:54:11;18.80;69.10
37658;DHT22;23500;53.268;8.308;2023-05-10T03:56:37;18.80;69.00
37658;DHT22;23500;53.268;8.308;2023-05-10T03:59:03;18.80;69.00
37658;DHT22;23500;53.268;8.308;2023-05-10T04:01:33;18.80;69.10
37658;DHT22;23500;53.268;8.308;2023-05-10T04:03:59;18.80;69.30
37658;DHT22;23500;53.268;8.308;2023-05-10T04:06:24;18.80;69.30
37658;DHT22;23500;53.268;8.308;2023-05-10T04:08:50;18.80;69.30
37658;DHT22;23500;53.268;8.308;2023-05-10T04:11:16;18.80;69.20
37658;DHT22;23500;53.268;8.308;2023-05-10T04:13:41;18.80;69.20
37658;DHT22;23500;53.268;8.308;2023-05-10T04:16:08;18.80;69.30
37658;DHT22;23500;53.268;8.308;2023-05-10T04:18:34;18.80;69.30
37658;DHT22;23500;53.268;8.308;2023-05-10T04:21:00;18.80;69.20
37658;DHT22;23500;53.268;8.308;2023-05-10T04:23:27;18.80;69.30
37658;DHT22;23500;53.268;8.308;2023-05-10T04:25:52;18.70;69.30
37658;DHT22;23500;53.268;8.308;2023-05-10T04:28:23;18.80;69.50
37658;DHT22;23500;53.268;8.308;2023-05-10T04:30:49;18.70;69.40
37658;DHT22;23500;53.268;8.308;2023-05-10T04:33:15;18.70;69.40
37658;DHT22;23500;53.268;8.308;2023-05-10T04:35:40;18.70;69.40
37658;DHT22;23500;53.268;8.308;2023-05-10T04:38:06;18.70;69.50
37658;DHT22;23500;53.268;8.308;2023-05-10T04:40:32;18.70;69.60
37658;DHT22;23500;53.268;8.308;2023-05-10T04:42:58;18.70;69.60
37658;DHT22;23500;53.268;8.308;2023-05-10T04:45:23;18.70;69.60
37658;DHT22;23500;53.268;8.308;2023-05-10T04:47:49;18.70;69.60
37658;DHT22;23500;53.268;8.308;2023-05-10T04:50:14;18.70;69.70
37658;DHT22;23500;53.268;8.308;2023-05-10T04:52:40;18.70;69.80
37658;DHT22;23500;53.268;8.308;2023-05-10T04:55:06;18.70;69.80
37658;DHT22;23500;53.268;8.308;2023-05-10T04:57:34;18.70;69.80
37658;DHT22;23500;53.268;8.308;2023-05-10T05:00:00;18.70;69.80
37658;DHT22;23500;53.268;8.308;2023-05-10T05:02:26;18.70;69.90
37658;DHT22;23500;53.268;8.308;2023-05-10T05:04:51;18.70;69.90
37658;DHT22;23500;53.268;8.308;2023-05-10T05:07:17;18.70;70.00
37658;DHT22;23500;53.268;8.308;2023-05-10T05:09:43;18.70;70.00
37658;DHT22;23500;53.268;8.308;2023-05-10T05:12:08;18.70;70.00
37658;DHT22;23500;53.268;8.308;2023-05-10T05:14:39;18.70;70.00
37658;DHT22;23500;53.268;8.308;2023-05-10T05:17:05;18.70;70.00
37658;DHT22;23500;53.268;8.308;2023-05-10T05:19:31;18.70;70.00
37658;DHT22;23500;53.268;8.308;2023-05-10T05:21:57;18.70;70.00
37658;DHT22;23500;53.268;8.308;2023-05-10T05:24:22;18.70;70.10
37658;DHT22;23500;53.268;8.308;2023-05-10T05:26:48;18.70;70.10
37658;DHT22;23500;53.268;8.308;2023-05-10T05:29:14;18.70;70.10
37658;DHT22;23500;53.268;8.308;2023-05-10T05:31:39;18.70;70.10
37658;DHT22;23500;53.268;8.308;2023-05-10T05:34:05;18.70;70.20
37658;DHT22;23500;53.268;8.308;2023-05-10T05:36:31;18.70;70.20
37658;DHT22;23500;53.268;8.308;2023-05-10T05:38:57;18.70;70.20
37658;DHT22;23500;53.268;8.308;2023-05-10T05:41:23;18.70;70.20
37658;DHT22;23500;53.268;8.308;2023-05-10T05:43:49;18.80;70.20
37658;DHT22;23500;53.268;8.308;2023-05-10T05:46:15;18.80;70.20
37658;DHT22;23500;53.268;8.308;2023-05-10T05:48:41;18.80;70.20
37658;DHT22;23500;53.268;8.308;2023-05-10T05:51:06;18.80;70.20
37658;DHT22;23500;53.268;8.308;2023-05-10T05:53:32;18.80;70.10
37658;DHT22;23500;53.268;8.308;2023-05-10T05:55:58;18.80;70.00
37658;DHT22;23500;53.268;8.308;2023-05-10T05:58:24;18.80;70.00
37658;DHT22;23500;53.268;8.308;2023-05-10T06:00:51;18.80;70.00
37658;DHT22;23500;53.268;8.308;2023-05-10T06:03:20;18.80;70.00
37658;DHT22;23500;53.268;8.308;2023-05-10T06:05:46;18.80;70.00
37658;DHT22;23500;53.268;8.308;2023-05-10T06:08:12;18.80;70.00
37658;DHT22;23500;53.268;8.308;2023-05-10T06:10:38;18.80;69.90
37658;DHT22;23500;53.268;8.308;2023-05-10T06:13:03;18.80;69.80
37658;DHT22;23500;53.268;8.308;2023-05-10T06:15:29;18.90;69.90
37658;DHT22;23500;53.268;8.308;2023-05-10T06:17:55;18.90;70.00
37658;DHT22;23500;53.268;8.308;2023-05-10T06:20:20;18.90;69.90
37658;DHT22;23500;53.268;8.308;2023-05-10T06:22:46;18.90;69.70
37658;DHT22;23500;53.268;8.308;2023-05-10T06:25:12;18.90;69.60
37658;DHT22;23500;53.268;8.308;2023-05-10T06:27:37;19.00;69.70
37658;DHT22;23500;53.268;8.308;2023-05-10T06:30:04;19.00;70.20
37658;DHT22;23500;53.268;8.308;2023-05-10T06:32:30;19.00;69.40
37658;DHT22;23500;53.268;8.308;2023-05-10T06:34:56;19.00;69.30
37658;DHT22;23500;53.268;8.308;2023-05-10T06:37:22;19.00;69.30
37658;DHT22;23500;53.268;8.308;2023-05-10T06:39:47;19.00;69.20
37658;DHT22;23500;53.268;8.308;2023-05-10T06:42:13;19.00;69.20
37658;DHT22;23500;53.268;8.308;2023-05-10T06:44:39;19.10;69.30
37658;DHT22;23500;53.268;8.308;2023-05-10T06:47:05;19.10;69.30
37658;DHT22;23500;53.268;8.308;2023-05-10T06:49:30;19.10;69.30
37658;DHT22;23500;53.268;8.308;2023-05-10T06:51:56;19.10;69.40
37658;DHT22;23500;53.268;8.308;2023-05-10T06:54:22;19.10;69.50
37658;DHT22;23500;53.268;8.308;2023-05-10T06:56:48;19.00;69.40
37658;DHT22;23500;53.268;8.308;2023-05-10T06:59:14;19.10;69.40
37658;DHT22;23500;53.268;8.308;2023-05-10T07:01:42;19.10;69.50
37658;DHT22;23500;53.268;8.308;2023-05-10T07:04:07;19.10;69.30
37658;DHT22;23500;53.268;8.308;2023-05-10T07:06:33;19.10;69.30
37658;DHT22;23500;53.268;8.308;2023-05-10T07:08:59;19.10;69.30
37658;DHT22;23500;53.268;8.308;2023-05-10T07:11:26;19.10;69.10
37658;DHT22;23500;53.268;8.308;2023-05-10T07:13:52;19.10;68.80
37658;DHT22;23500;53.268;8.308;2023-05-10T07:16:18;19.20;68.70
37658;DHT22;23500;53.268;8.308;2023-05-10T07:18:43;19.30;68.60
37658;DHT22;23500;53.268;8.308;2023-05-10T07:21:09;19.30;68.40
37658;DHT22;23500;53.268;8.308;2023-05-10T07:23:35;19.30;68.20
37658;DHT22;23500;53.268;8.308;2023-05-10T07:26:00;19.40;68.40
37658;DHT22;23500;53.268;8.308;2023-05-10T07:28:27;19.40;68.20
37658;DHT22;23500;53.268;8.308;2023-05-10T07:30:53;19.40;68.30
37658;DHT22;23500;53.268;8.308;2023-05-10T07:33:18;19.40;67.90
37658;DHT22;23500;53.268;8.308;2023-05-10T07:35:44;19.40;68.30
37658;DHT22;23500;53.268;8.308;2023-05-10T07:38:10;19.50;68.00
37658;DHT22;23500;53.268;8.308;2023-05-10T07:40:36;19.40;68.10
37658;DHT22;23500;53.268;8.308;2023-05-10T07:43:02;19.40;68.00
37658;DHT22;23500;53.268;8.308;2023-05-10T07:45:28;19.50;68.80
37658;DHT22;23500;53.268;8.308;2023-05-10T07:47:54;19.50;68.00
37658;DHT22;23500;53.268;8.308;2023-05-10T07:50:19;19.50;68.10
37658;DHT22;23500;53.268;8.308;2023-05-10T07:52:46;19.50;67.70
37658;DHT22;23500;53.268;8.308;2023-05-10T07:55:12;19.50;67.90
37658;DHT22;23500;53.268;8.308;2023-05-10T07:57:38;19.50;67.90
37658;DHT22;23500;53.268;8.308;2023-05-10T08:00:05;19.40;67.90
37658;DHT22;23500;53.268;8.308;2023-05-10T08:02:31;19.50;68.30
37658;DHT22;23500;53.268;8.308;2023-05-10T08:04:56;19.40;68.30
37658;DHT22;23500;53.268;8.308;2023-05-10T08:07:24;19.40;68.20
37658;DHT22;23500;53.268;8.308;2023-05-10T08:09:50;19.40;68.50
37658;DHT22;23500;53.268;8.308;2023-05-10T08:12:15;19.30;68.60
37658;DHT22;23500;53.268;8.308;2023-05-10T08:14:41;19.40;68.70
37658;DHT22;23500;53.268;8.308;2023-05-10T08:17:06;19.30;68.50
37658;DHT22;23500;53.268;8.308;2023-05-10T08:19:32;19.40;68.60
37658;DHT22;23500;53.268;8.308;2023-05-10T08:21:58;19.40;68.30
37658;DHT22;23500;53.268;8.308;2023-05-10T08:24:23;19.40;68.40
37658;DHT22;23500;53.268;8.308;2023-05-10T08:26:49;19.50;68.60
37658;DHT22;23500;53.268;8.308;2023-05-10T08:29:15;19.40;68.70
37658;DHT22;23500;53.268;8.308;2023-05-10T08:31:41;19.40;68.50
37658;DHT22;23500;53.268;8.308;2023-05-10T08:34:07;19.40;68.50
37658;DHT22;23500;53.268;8.308;2023-05-10T08:36:32;19.30;68.60
37658;DHT22;23500;53.268;8.308;2023-05-10T08:38:58;19.30;68.60
37658;DHT22;23500;53.268;8.308;2023-05-10T08:41:24;19.30;68.30
37658;DHT22;23500;53.268;8.308;2023-05-10T08:43:51;19.30;68.50
37658;DHT22;23500;53.268;8.308;2023-05-10T08:46:19;19.30;68.80
37658;DHT22;23500;53.268;8.308;2023-05-10T08:48:45;19.30;68.80
37658;DHT22;23500;53.268;8.308;2023-05-10T08:51:17;19.30;69.00
37658;DHT22;23500;53.268;8.308;2023-05-10T08:53:44;19.40;68.90
37658;DHT22;23500;53.268;8.308;2023-05-10T08:56:11;19.40;69.10
37658;DHT22;23500;53.268;8.308;2023-05-10T08:58:41;19.40;68.50
37658;DHT22;23500;53.268;8.308;2023-05-10T09:01:08;19.40;68.10
37658;DHT22;23500;53.268;8.308;2023-05-10T09:03:35;19.40;68.40
37658;DHT22;23500;53.268;8.308;2023-05-10T09:06:03;19.40;68.60
37658;DHT22;23500;53.268;8.308;2023-05-10T09:08:28;19.40;68.60
37658;DHT22;23500;53.268;8.308;2023-05-10T09:10:56;19.40;68.50
37658;DHT22;23500;53.268;8.308;2023-05-10T09:13:23;19.40;68.50
37658;DHT22;23500;53.268;8.308;2023-05-10T09:15:49;19.40;69.20
37658;DHT22;23500;53.268;8.308;2023-05-10T09:18:15;19.40;68.80
37658;DHT22;23500;53.268;8.308;2023-05-10T09:20:41;19.50;68.10
37658;DHT22;23500;53.268;8.308;2023-05-10T09:23:07;19.60;68.30
37658;DHT22;23500;53.268;8.308;2023-05-10T09:25:33;19.60;68.40
37658;DHT22;23500;53.268;8.308;2023-05-10T09:27:59;19.70;68.00
37658;DHT22;23500;53.268;8.308;2023-05-10T09:30:27;19.80;67.80
37658;DHT22;23500;53.268;8.308;2023-05-10T09:32:54;19.80;67.70
37658;DHT22;23500;53.268;8.308;2023-05-10T09:35:22;19.80;67.30
37658;DHT22;23500;53.268;8.308;2023-05-10T09:37:53;19.80;67.20
37658;DHT22;23500;53.268;8.308;2023-05-10T09:40:26;19.80;67.20
37658;DHT22;23500;53.268;8.308;2023-05-10T09:45:21;19.80;68.50
37658;DHT22;23500;53.268;8.308;2023-05-10T09:47:47;19.80;67.40
37658;DHT22;23500;53.268;8.308;2023-05-10T09:50:13;19.90;68.00
37658;DHT22;23500;53.268;8.308;2023-05-10T09:52:58;19.90;68.90
37658;DHT22;23500;53.268;8.308;2023-05-10T09:55:43;19.90;68.50
37658;DHT22;23500;53.268;8.308;2023-05-10T09:58:12;20.00;68.20
37658;DHT22;23500;53.268;8.308;2023-05-10T10:00:42;19.90;68.20
37658;DHT22;23500;53.268;8.308;2023-05-10T10:03:16;19.90;68.10
37658;DHT22;23500;53.268;8.308;2023-05-10T10:05:43;19.80;67.70
37658;DHT22;23500;53.268;8.308;2023-05-10T10:08:10;19.80;67.70
37658;DHT22;23500;53.268;8.308;2023-05-10T10:10:36;19.80;67.10
37658;DHT22;23500;53.268;8.308;2023-05-10T10:13:02;19.70;67.50
37658;DHT22;23500;53.268;8.308;2023-05-10T10:15:28;19.70;67.30
37658;DHT22;23500;53.268;8.308;2023-05-10T10:17:54;19.70;67.70
37658;DHT22;23500;53.268;8.308;2023-05-10T10:20:21;19.70;67.50
37658;DHT22;23500;53.268;8.308;2023-05-10T10:22:48;19.80;66.90
37658;DHT22;23500;53.268;8.308;2023-05-10T10:25:15;19.80;66.60
37658;DHT22;23500;53.268;8.308;2023-05-10T10:36:05;20.00;65.90
37658;DHT22;23500;53.268;8.308;2023-05-10T10:41:35;20.10;65.80
37658;DHT22;23500;53.268;8.308;2023-05-10T10:49:49;19.90;66.20
37658;DHT22;23500;53.268;8.308;2023-05-10T10:52:23;19.80;66.40
37658;DHT22;23500;53.268;8.308;2023-05-10T11:00:31;19.80;66.80
37658;DHT22;23500;53.268;8.308;2023-05-10T11:07:54;19.80;66.60
37658;DHT22;23500;53.268;8.308;2023-05-10T11:10:23;19.90;66.30
37658;DHT22;23500;53.268;8.308;2023-05-10T11:13:05;19.90;66.30
37658;DHT22;23500;53.268;8.308;2023-05-10T11:15:33;20.00;66.40
37658;DHT22;23500;53.268;8.308;2023-05-10T11:17:59;19.90;66.40
37658;DHT22;23500;53.268;8.308;2023-05-10T11:20:28;19.90;66.40
37658;DHT22;23500;53.268;8.308;2023-05-10T11:23:11;19.90;66.60
37658;DHT22;23500;53.268;8.308;2023-05-10T11:25:42;19.80;66.60
37658;DHT22;23500;53.268;8.308;2023-05-10T11:28:08;19.80;66.60
37658;DHT22;23500;53.268;8.308;2023-05-10T11:30:34;20.00;66.60
37658;DHT22;23500;53.268;8.308;2023-05-10T11:33:00;20.00;66.40
37658;DHT22;23500;53.268;8.308;2023-05-10T11:35:27;20.00;66.40
37658;DHT22;23500;53.268;8.308;2023-05-10T11:37:53;20.00;66.30
37658;DHT22;23500;53.268;8.308;2023-05-10T11:40:21;20.00;66.40
37658;DHT22;23500;53.268;8.308;2023-05-10T11:42:46;20.00;66.20
37658;DHT22;23500;53.268;8.308;2023-05-10T11:45:12;20.00;66.10
37658;DHT22;23500;53.268;8.308;2023-05-10T11:47:38;20.10;66.00
37658;DHT22;23500;53.268;8.308;2023-05-10T11:50:05;20.10;65.90
37658;DHT22;23500;53.268;8.308;2023-05-10T11:52:36;20.10;65.90
37658;DHT22;23500;53.268;8.308;2023-05-10T11:55:03;20.10;66.10
37658;DHT22;23500;53.268;8.308;2023-05-10T11:57:28;20.00;66.10
37658;DHT22;23500;53.268;8.308;2023-05-10T11:59:56;20.00;66.30
37658;DHT22;23500;53.268;8.308;2023-05-10T12:02:22;20.00;66.40
37658;DHT22;23500;53.268;8.308;2023-05-10T12:04:49;20.00;66.40
37658;DHT22;23500;53.268;8.308;2023-05-10T12:07:16;19.90;66.50
37658;DHT22;23500;53.268;8.308;2023-05-10T12:09:43;19.90;66.70
37658;DHT22;23500;53.268;8.308;2023-05-10T12:12:10;19.90;66.80
37658;DHT22;23500;53.268;8.308;2023-05-10T12:14:36;19.90;66.90
37658;DHT22;23500;53.268;8.308;2023-05-10T12:17:02;19.90;66.80
37658;DHT22;23500;53.268;8.308;2023-05-10T12:19:28;19.90;66.70
37658;DHT22;23500;53.268;8.308;2023-05-10T12:21:53;19.90;66.70
37658;DHT22;23500;53.268;8.308;2023-05-10T12:24:19;19.90;66.80
37658;DHT22;23500;53.268;8.308;2023-05-10T12:26:46;19.80;66.90
37658;DHT22;23500;53.268;8.308;2023-05-10T12:29:15;19.80;66.90
37658;DHT22;23500;53.268;8.308;2023-05-10T12:31:57;19.80;66.90
37658;DHT22;23500;53.268;8.308;2023-05-10T12:36:53;19.90;66.90
37658;DHT22;23500;53.268;8.308;2023-05-10T12:39:19;19.90;67.00
37658;DHT22;23500;53.268;8.308;2023-05-10T12:41:44;19.90;67.00
37658;DHT22;23500;53.268;8.308;2023-05-10T12:44:10;19.90;67.00
37658;DHT22;23500;53.268;8.308;2023-05-10T12:46:36;19.80;67.10
37658;DHT22;23500;53.268;8.308;2023-05-10T12:49:01;19.80;67.10
37658;DHT22;23500;53.268;8.308;2023-05-10T12:51:27;19.90;67.10
37658;DHT22;23500;53.268;8.308;2023-05-10T12:53:52;19.90;67.10
37658;DHT22;23500;53.268;8.308;2023-05-10T12:56:18;19.90;67.00
37658;DHT22;23500;53.268;8.308;2023-05-10T12:58:44;19.90;67.00
37658;DHT22;23500;53.268;8.308;2023-05-10T13:01:13;19.90;67.00
37658;DHT22;23500;53.268;8.308;2023-05-10T13:03:39;19.90;67.00
37658;DHT22;23500;53.268;8.308;2023-05-10T13:06:05;19.90;67.00
37658;DHT22;23500;53.268;8.308;2023-05-10T13:08:32;19.90;66.90
37658;DHT22;23500;53.268;8.308;2023-05-10T13:10:59;19.90;66.90
37658;DHT22;23500;53.268;8.308;2023-05-10T13:13:25;20.00;67.00
37658;DHT22;23500;53.268;8.308;2023-05-10T13:15:51;19.90;66.90
37658;DHT22;23500;53.268;8.308;2023-05-10T13:18:17;19.90;67.00
37658;DHT22;23500;53.268;8.308;2023-05-10T13:20:43;19.90;67.10
37658;DHT22;23500;53.268;8.308;2023-05-10T13:23:10;19.90;67.10
37658;DHT22;23500;53.268;8.308;2023-05-10T13:25:35;19.90;67.10
37658;DHT22;23500;53.268;8.308;2023-05-10T13:28:01;19.90;67.10
37658;DHT22;23500;53.268;8.308;2023-05-10T13:30:27;19.90;67.00
37658;DHT22;23500;53.268;8.308;2023-05-10T13:32:54;19.90;67.00
37658;DHT22;23500;53.268;8.308;2023-05-10T13:35:20;20.00;66.90
37658;DHT22;23500;53.268;8.308;2023-05-10T13:37:46;20.00;66.80
37658;DHT22;23500;53.268;8.308;2023-05-10T13:40:11;20.10;66.60
37658;DHT22;23500;53.268;8.308;2023-05-10T13:42:37;20.10;66.40
37658;DHT22;23500;53.268;8.308;2023-05-10T13:45:03;20.20;66.40
37658;DHT22;23500;53.268;8.308;2023-05-10T13:47:29;20.20;66.20
37658;DHT22;23500;53.268;8.308;2023-05-10T13:49:56;20.20;66.20
37658;DHT22;23500;53.268;8.308;2023-05-10T13:52:22;20.20;66.20
37658;DHT22;23500;53.268;8.308;2023-05-10T13:54:48;20.20;66.20
37658;DHT22;23500;53.268;8.308;2023-05-10T13:57:14;20.20;66.20
37658;DHT22;23500;53.268;8.308;2023-05-10T13:59:42;20.20;66.20
37658;DHT22;23500;53.268;8.308;2023-05-10T14:02:07;20.20;66.20
37658;DHT22;23500;53.268;8.308;2023-05-10T14:04:33;20.20;66.20
37658;DHT22;23500;53.268;8.308;2023-05-10T14:07:00;20.20;66.30
37658;DHT22;23500;53.268;8.308;2023-05-10T14:09:26;20.20;66.30
37658;DHT22;23500;53.268;8.308;2023-05-10T14:11:52;20.10;66.40
37658;DHT22;23500;53.268;8.308;2023-05-10T14:14:17;20.00;66.50
37658;DHT22;23500;53.268;8.308;2023-05-10T14:16:44;20.00;66.80
37658;DHT22;23500;53.268;8.308;2023-05-10T14:19:10;20.00;67.00
37658;DHT22;23500;53.268;8.308;2023-05-10T14:21:36;19.90;67.00
37658;DHT22;23500;53.268;8.308;2023-05-10T14:24:02;19.90;67.00
37658;DHT22;23500;53.268;8.308;2023-05-10T14:26:29;19.90;67.20
37658;DHT22;23500;53.268;8.308;2023-05-10T14:28:54;19.80;67.20
37658;DHT22;23500;53.268;8.308;2023-05-10T14:31:20;19.80;67.20
37658;DHT22;23500;53.268;8.308;2023-05-10T14:33:49;19.90;67.20
37658;DHT22;23500;53.268;8.308;2023-05-10T14:36:14;19.90;67.30
37658;DHT22;23500;53.268;8.308;2023-05-10T14:38:40;19.80;67.20
37658;DHT22;23500;53.268;8.308;2023-05-10T14:41:06;19.80;67.30
37658;DHT22;23500;53.268;8.308;2023-05-10T14:43:32;19.80;67.30
37658;DHT22;23500;53.268;8.308;2023-05-10T14:45:58;19.80;67.50
37658;DHT22;23500;53.268;8.308;2023-05-10T14:48:24;19.70;67.50
37658;DHT22;23500;53.268;8.308;2023-05-10T14:50:49;19.70;67.70
37658;DHT22;23500;53.268;8.308;2023-05-10T14:53:15;19.70;67.70
37658;DHT22;23500;53.268;8.308;2023-05-10T14:55:41;19.70;67.90
37658;DHT22;23500;53.268;8.308;2023-05-10T14:58:07;19.60;67.90
37658;DHT22;23500;53.268;8.308;2023-05-10T15:00:33;19.60;68.00
37658;DHT22;23500;53.268;8.308;2023-05-10T15:02:59;19.70;68.00
37658;DHT22;23500;53.268;8.308;2023-05-10T15:05:24;19.70;68.00
37658;DHT22;23500;53.268;8.308;2023-05-10T15:07:50;19.70;68.00
37658;DHT22;23500;53.268;8.308;2023-05-10T15:10:16;19.70;67.90
37658;DHT22;23500;53.268;8.308;2023-05-10T15:12:41;19.70;67.90
37658;DHT22;23500;53.268;8.308;2023-05-10T15:15:07;19.70;67.90
37658;DHT22;23500;53.268;8.308;2023-05-10T15:17:33;19.70;67.70
37658;DHT22;23500;53.268;8.308;2023-05-10T15:19:59;19.70;67.70
37658;DHT22;23500;53.268;8.308;2023-05-10T15:22:25;19.70;67.70
37658;DHT22;23500;53.268;8.308;2023-05-10T15:24:53;19.70;67.70
37658;DHT22;23500;53.268;8.308;2023-05-10T15:27:19;19.70;67.70
37658;DHT22;23500;53.268;8.308;2023-05-10T15:29:44;19.70;67.70
37658;DHT22;23500;53.268;8.308;2023-05-10T15:32:10;19.70;67.70
37658;DHT22;23500;53.268;8.308;2023-05-10T15:34:35;19.70;67.70
37658;DHT22;23500;53.268;8.308;2023-05-10T15:37:01;19.70;68.50
37658;DHT22;23500;53.268;8.308;2023-05-10T15:39:28;19.70;67.80
37658;DHT22;23500;53.268;8.308;2023-05-10T15:41:53;19.70;67.80
37658;DHT22;23500;53.268;8.308;2023-05-10T15:44:19;19.70;67.90
37658;DHT22;23500;53.268;8.308;2023-05-10T15:46:44;19.70;67.90
37658;DHT22;23500;53.268;8.308;2023-05-10T15:49:10;19.70;67.90
37658;DHT22;23500;53.268;8.308;2023-05-10T15:51:36;19.70;67.90
37658;DHT22;23500;53.268;8.308;2023-05-10T15:54:02;19.70;67.90
37658;DHT22;23500;53.268;8.308;2023-05-10T15:56:28;19.70;67.80
37658;DHT22;23500;53.268;8.308;2023-05-10T15:58:54;19.70;67.80
37658;DHT22;23500;53.268;8.308;2023-05-10T16:01:19;19.70;67.70
37658;DHT22;23500;53.268;8.308;2023-05-10T16:03:45;19.70;67.70
37658;DHT22;23500;53.268;8.308;2023-05-10T16:06:11;19.80;67.60
37658;DHT22;23500;53.268;8.308;2023-05-10T16:08:36;19.80;67.80
37658;DHT22;23500;53.268;8.308;2023-05-10T16:11:02;19.80;67.90